메인 페이지
METAR-TAF:

METAR-TAF

공항 :

히스로 공항

런던 / 히드로, 잉글랜드

위도: 51-29N, 경도: 000-27W, 고도: 24m

현재 날씨관측

예보는 19분 전, 09:20시(UTC)에 발표되었습니다.
여러 방향의 바람 3kt
온도 17°C
습도 59%
기압 1023 hPa
시정 10km 이상

METAR: EGLL 200920Z AUTO VRB03KT 9999 NCD 17/09 Q1023

시각: 10:39 (09:39 UTC)

예보

예보는 4 시간 35분 전, 05:04시(UTC)에 발표되었습니다.
예보 대상 시간: 20일 06시부터 21일 12시까지 (UTC)
남동3kt
시정: 7000m
고도 4000ft 상공 구름 조금
전환 중
20일 06시부터 20일 09시까지 (UTC)
시정 10km 이상
전환 중
21일 00시부터 21일 03시까지 (UTC)
시정: 7000m
확률 40% :
일시적
21일 03시부터 21일 08시까지 (UTC)
시정: 4500m
연무
전환 중
21일 07시부터 21일 10시까지 (UTC)
시정 10km 이상
확률 30% :
일시적
21일 10시부터 21일 12시까지 (UTC)
시정: 7000m
소나기

TAF: EGLL 200504Z 2006/2112 14003KT 7000 FEW040 BECMG 2006/2009 9999 BECMG 2100/2103 7000 PROB40 TEMPO 2103/2108 4500 HZ BECMG 2107/2110 9999 PROB30 TEMPO 2110/2112 7000 SHRA

4,000개 이상의 공항 관측 자료 및 예보 (METAR 및 TAF 보고).

지도상에서 검색 가능한 기상관측소가 노란 점과 빨간 점으로 표시되어 있습니다.

기상관측소 명을 보려면 표시 위로 마우스를 이동하세요.

날씨 관측과 예보를 보려면 클릭하세요.

지도 변경 : 확대하려면 엑스 표시가 있는 녹색 버튼, 축소하려면 빼기 표시가 있는 녹색 버튼, 다음 페이지의 지도를 보려면 녹색 화살표를 클릭하세요.


METAR-TAF: